Time;durP1;ratioP1;P1;durP2;ratioP2;P2;SDS_P1;SDS_P2;PMS_P1;PMS_P2;Temp;Humidity;BMP_temperature;BMP_pressure;BME280_temperature;BME280_humidity;BME280_pressure;Samples;Min_cycle;Max_cycle;Signal;HPM_P1;HPM_P2
2023/09/13 00:00:15;;;;;;;371.11;296.68;;;;;;;21.34;64.06;99793.78;2501941;27;20496;-74
2023/09/13 00:00:25;;;;;;;382.37;316.43;;;;;;;21.35;63.98;99790.16;352834;28;1169;-74
2023/09/13 00:00:36;;;;;;;381.25;307.50;;;;;;;21.36;64.26;99790.03;350191;28;844;-74
2023/09/13 00:00:48;;;;;;;380.97;308.63;;;;;;;21.37;64.42;99788.22;348709;28;1336;-74
2023/09/13 00:00:58;;;;;;;382.80;315.85;;;;;;;21.37;64.73;99794.38;348761;28;1014;-74
2023/09/13 00:01:08;;;;;;;383.30;321.17;;;;;;;21.39;64.32;99788.94;348794;28;925;-74
2023/09/13 00:01:19;;;;;;;382.95;317.92;;;;;;;21.38;64.40;99793.41;348354;28;3065;-75
2023/09/13 00:01:29;;;;;;;385.67;323.33;;;;;;;21.38;64.59;99796.06;348797;28;4669;-74
2023/09/13 00:01:40;;;;;;;384.23;319.63;;;;;;;21.39;64.91;99787.13;349764;28;3043;-74
2023/09/13 00:01:50;;;;;;;387.23;319.80;;;;;;;21.39;64.74;99792.44;348930;28;950;-74
2023/09/13 00:02:00;;;;;;;386.02;313.23;;;;;;;21.40;64.66;99788.81;349214;28;2914;-75
2023/09/13 00:02:11;;;;;;;390.53;316.43;;;;;;;21.40;64.67;99785.31;348547;28;1396;-75
2023/09/13 00:02:21;;;;;;;390.03;320.43;;;;;;;21.40;64.48;99788.81;350452;28;1187;-74
2023/09/13 00:02:32;;;;;;;388.60;323.60;;;;;;;21.42;64.46;99786.03;350356;28;1382;-74
2023/09/13 00:02:42;;;;;;;384.70;322.87;;;;;;;21.43;64.71;99795.69;348756;28;1094;-74
2023/09/13 00:02:52;;;;;;;381.55;316.88;;;;;;;;;;347397;28;1191;-74
2023/09/13 00:03:03;;;;;;;380.93;312.60;;;;;;;21.45;64.82;99791.94;345845;28;1560;-74
2023/09/13 00:03:13;;;;;;;379.63;310.83;;;;;;;21.46;65.24;99793.63;347787;28;1170;-74
2023/09/13 00:03:24;;;;;;;379.93;310.57;;;;;;;21.46;65.04;99790.97;348860;28;733;-74
2023/09/13 00:03:34;;;;;;;381.20;312.60;;;;;;;21.47;65.44;99784.66;348578;28;1302;-74
2023/09/13 00:03:45;;;;;;;382.48;313.27;;;;;;;21.47;66.01;99789.16;348735;28;880;-74
2023/09/13 00:03:57;;;;;;;383.98;320.55;;;;;;;21.47;65.49;99790.00;345946;28;1291;-74
2023/09/13 00:04:07;;;;;;;385.17;323.73;;;;;;;21.48;65.81;99786.34;348360;28;1296;-74
2023/09/13 00:04:19;;;;;;;384.93;321.97;;;;;;;21.49;66.12;99797.84;345922;28;1420;-74
2023/09/13 00:04:29;;;;;;;384.16;320.10;;;;;;;21.50;65.84;99792.41;343308;28;1272;-74
2023/09/13 00:04:39;;;;;;;380.00;310.20;;;;;;;21.50;65.42;99794.22;346060;28;1433;-74
2023/09/13 00:04:50;;;;;;;381.07;312.03;;;;;;;21.49;64.99;99793.38;345840;28;1515;-74
2023/09/13 00:05:00;;;;;;;380.67;311.10;;;;;;;21.49;65.13;99793.38;345878;28;1538;-75
2023/09/13 00:05:11;;;;;;;381.77;315.57;;;;;;;21.47;64.93;99790.00;342602;28;1057;-74
2023/09/13 00:05:21;;;;;;;381.15;317.05;;;;;;;21.44;65.01;99800.91;344271;28;1594;-74
2023/09/13 00:05:31;;;;;;;383.57;321.50;;;;;;;;;;341910;28;877;-74
2023/09/13 00:05:42;;;;;;;384.77;323.27;;;;;;;;;;343185;28;1361;-74
2023/09/13 00:05:52;;;;;;;385.63;322.33;;;;;;;21.41;65.39;99798.50;342059;28;1234;-74
2023/09/13 00:06:03;;;;;;;385.77;319.13;;;;;;;21.41;65.21;99800.31;341661;28;1509;-74
2023/09/13 00:06:13;;;;;;;385.67;321.50;;;;;;;21.39;65.20;99796.94;341802;28;1277;-74
2023/09/13 00:06:24;;;;;;;384.50;319.53;;;;;;;21.39;65.49;99797.78;341077;28;1194;-74
2023/09/13 00:06:35;;;;;;;383.28;322.08;;;;;;;21.38;65.63;99801.41;340330;28;1372;-74
2023/09/13 00:06:45;;;;;;;382.40;321.33;;;;;;;21.39;65.70;99797.78;343117;28;1185;-74
2023/09/13 00:06:56;;;;;;;384.38;322.13;;;;;;;21.40;65.85;99794.13;346299;28;1284;-74
2023/09/13 00:07:06;;;;;;;382.83;315.60;;;;;;;21.40;65.69;99793.28;347281;28;1230;-75
2023/09/13 00:07:18;;;;;;;382.70;312.90;;;;;;;21.39;65.51;99787.13;342048;28;1359;-76
2023/09/13 00:07:28;;;;;;;378.80;311.73;;;;;;;21.41;65.48;99795.81;340725;29;881;-74
2023/09/13 00:07:38;;;;;;;378.63;310.88;;;;;;;21.41;65.72;99794.97;337749;29;1446;-74
2023/09/13 00:07:49;;;;;;;381.60;315.40;;;;;;;21.42;65.53;99794.00;343120;28;1250;-74
2023/09/13 00:07:59;;;;;;;385.57;320.37;;;;;;;21.41;65.47;99795.81;340435;28;1382;-74
2023/09/13 00:08:10;;;;;;;385.02;318.65;;;;;;;21.42;65.04;99797.53;341565;28;1397;-74
2023/09/13 00:08:20;;;;;;;382.33;313.97;;;;;;;;;;338779;29;1504;-74
2023/09/13 00:08:30;;;;;;;383.55;313.10;;;;;;;21.44;65.61;99790.25;336751;29;862;-74
2023/09/13 00:08:41;;;;;;;387.50;319.27;;;;;;;;;;334391;29;1219;-74
2023/09/13 00:08:51;;;;;;;389.53;321.17;;;;;;;21.45;65.28;99788.44;335210;29;1689;-74
2023/09/13 00:09:01;;;;;;;389.08;326.63;;;;;;;21.41;65.43;99793.16;336523;29;1233;-74
2023/09/13 00:09:12;;;;;;;385.73;327.20;;;;;;;21.40;65.27;99793.28;339166;29;1375;-74
2023/09/13 00:09:22;;;;;;;383.87;326.20;;;;;;;21.41;65.41;99800.31;339804;28;1445;-74
2023/09/13 00:09:33;;;;;;;383.60;322.40;;;;;;;21.39;65.58;99795.09;341959;28;881;-73
2023/09/13 00:09:43;;;;;;;386.70;324.17;;;;;;;21.39;65.63;99792.44;337135;29;1142;-73
2023/09/13 00:09:54;;;;;;;387.77;325.20;;;;;;;21.40;64.97;99799.47;338549;29;1379;-73
2023/09/13 00:10:05;;;;;;;385.93;324.20;;;;;;;21.40;65.26;99798.63;338918;29;1576;-73
2023/09/13 00:10:16;;;;;;;381.40;316.55;;;;;;;21.38;65.44;99801.41;338016;29;1283;-73
2023/09/13 00:10:26;;;;;;;383.10;320.02;;;;;;;21.36;64.85;99798.03;337586;29;1970;-73
2023/09/13 00:10:37;;;;;;;383.73;319.83;;;;;;;21.36;65.50;99798.03;333313;29;2974;-73
2023/09/13 00:10:47;;;;;;;386.90;324.30;;;;;;;21.36;65.36;99789.19;333272;29;4285;-73
2023/09/13 00:11:04;;;;;;;385.23;319.90;;;;;;;21.35;65.60;99796.34;334528;29;3140;-73
2023/09/13 00:11:14;;;;;;;386.30;319.38;;;;;;;21.33;65.80;99798.28;330685;29;3124;-73
2023/09/13 00:11:24;;;;;;;385.60;315.10;;;;;;;21.34;65.48;99799.13;337210;29;1715;-73
2023/09/13 00:11:35;;;;;;;384.63;318.30;;;;;;;21.34;65.51;99799.97;336501;29;1187;-73
2023/09/13 00:11:45;;;;;;;386.30;317.77;;;;;;;21.35;65.18;99795.50;334018;29;906;-73
2023/09/13 00:11:56;;;;;;;388.50;323.67;;;;;;;21.34;65.20;99799.97;332169;29;1536;-73
2023/09/13 00:12:08;;;;;;;390.60;326.40;;;;;;;21.33;65.44;99798.28;328830;29;1835;-73
2023/09/13 00:12:18;;;;;;;386.98;325.60;;;;;;;21.33;65.20;99798.28;327960;30;1493;-73
2023/09/13 00:12:28;;;;;;;384.83;322.67;;;;;;;21.33;65.29;99797.44;327188;29;2253;-73
2023/09/13 00:12:39;;;;;;;382.25;320.92;;;;;;;21.33;65.15;99798.28;330554;29;2341;-73
2023/09/13 00:12:49;;;;;;;390.20;322.23;;;;;;;21.32;64.93;99793.91;332281;29;2358;-73
2023/09/13 00:13:00;;;;;;;391.10;320.45;;;;;;;21.31;65.60;99799.38;331447;29;1276;-73
2023/09/13 00:13:11;;;;;;;392.00;321.10;;;;;;;21.30;65.23;99800.34;329755;29;2349;-73
2023/09/13 00:13:22;;;;;;;384.45;317.85;;;;;;;21.29;65.33;99791.50;324669;30;2559;-73
2023/09/13 00:13:32;;;;;;;384.63;318.50;;;;;;;21.29;65.66;99801.31;325613;30;1255;-73
2023/09/13 00:13:44;;;;;;;383.58;315.65;;;;;;;21.27;66.15;99797.94;328415;30;1931;-73
2023/09/13 00:13:55;;;;;;;385.33;321.85;;;;;;;21.26;65.96;99797.09;327892;29;1536;-73
2023/09/13 00:14:05;;;;;;;384.87;317.77;;;;;;;21.25;65.53;99800.72;325601;30;2416;-73
2023/09/13 00:14:16;;;;;;;386.63;318.85;;;;;;;21.25;65.53;99801.56;320776;30;1229;-73
2023/09/13 00:14:26;;;;;;;384.90;313.80;;;;;;;21.26;65.43;99797.09;323586;30;2679;-73
2023/09/13 00:14:36;;;;;;;384.58;317.60;;;;;;;21.28;65.83;99799.63;321825;30;2767;-73
2023/09/13 00:14:47;;;;;;;381.93;314.27;;;;;;;21.27;65.75;99793.44;319538;30;786;-73
2023/09/13 00:14:58;;;;;;;386.20;320.15;;;;;;;21.27;65.48;99804.09;319722;30;3464;-73
2023/09/13 00:15:09;;;;;;;385.73;315.63;;;;;;;21.28;65.84;99803.13;318369;30;3646;-73
2023/09/13 00:15:19;;;;;;;385.50;316.87;;;;;;;21.29;65.48;99806.63;317133;30;3103;-73
2023/09/13 00:15:30;;;;;;;383.88;314.48;;;;;;;21.30;65.69;99808.34;319667;30;866;-73
2023/09/13 00:15:42;;;;;;;386.50;320.77;;;;;;;21.29;65.91;99806.63;316586;31;3303;-73
2023/09/13 00:15:52;;;;;;;388.05;322.02;;;;;;;21.29;65.50;99804.81;313077;31;2480;-73
2023/09/13 00:16:03;;;;;;;387.17;323.07;;;;;;;21.29;65.38;99802.16;310380;31;1238;-73
2023/09/13 00:16:14;;;;;;;385.63;318.20;;;;;;;21.30;65.48;99795.88;314410;31;2028;-75
2023/09/13 00:16:25;;;;;;;383.88;316.52;;;;;;;21.29;65.71;99796.84;314479;31;2966;-74
2023/09/13 00:16:35;;;;;;;382.57;317.00;;;;;;;21.30;65.28;99801.19;311904;31;3925;-74
2023/09/13 00:16:45;;;;;;;386.20;325.27;;;;;;;21.31;65.28;99800.22;310502;31;867;-74
2023/09/13 00:16:56;;;;;;;390.23;330.43;;;;;;;21.32;65.41;99807.22;310641;31;4026;-74
2023/09/13 00:17:06;;;;;;;392.02;331.67;;;;;;;21.32;65.77;99799.25;309248;31;5092;-74
2023/09/13 00:17:17;;;;;;;391.93;332.70;;;;;;;21.33;65.67;99806.25;306270;32;886;-74
2023/09/13 00:17:28;;;;;;;388.98;329.88;;;;;;;21.33;66.53;99800.94;303472;32;5686;-74
2023/09/13 00:17:38;;;;;;;388.95;326.63;;;;;;;21.35;66.20;99803.47;302632;32;4063;-74
2023/09/13 00:17:48;;;;;;;387.77;319.10;;;;;;;21.34;66.59;99805.28;304010;32;1240;-74
2023/09/13 00:18:01;;;;;;;388.10;317.98;;;;;;;21.33;66.31;99802.75;304771;32;4317;-74
2023/09/13 00:18:14;;;;;;;387.90;321.77;;;;;;;21.32;66.30;99806.38;301446;32;3432;-74
2023/09/13 00:18:25;;;;;;;389.95;330.38;;;;;;;21.32;65.92;99806.38;296743;32;3072;-74
2023/09/13 00:18:35;;;;;;;388.83;330.33;;;;;;;21.31;65.92;99810.88;301596;32;4499;-74
2023/09/13 00:18:46;;;;;;;389.50;333.70;;;;;;;21.31;65.76;99804.69;303057;32;1193;-74
2023/09/13 00:18:56;;;;;;;387.05;325.67;;;;;;;21.29;65.93;99802.16;296969;32;5792;-74
2023/09/13 00:19:06;;;;;;;389.87;326.73;;;;;;;21.28;66.08;99805.78;294963;32;6736;-74
2023/09/13 00:19:17;;;;;;;390.02;324.45;;;;;;;21.28;66.13;99805.78;297948;33;1216;-74
2023/09/13 00:19:27;;;;;;;387.60;323.10;;;;;;;21.28;65.95;99804.94;299366;32;6643;-74
2023/09/13 00:19:38;;;;;;;385.27;323.30;;;;;;;21.29;65.64;99806.63;295130;33;7228;-74
2023/09/13 00:19:48;;;;;;;385.03;323.03;;;;;;;21.28;66.07;99811.13;293995;33;3665;-74
2023/09/13 00:19:58;;;;;;;386.30;324.03;;;;;;;21.27;65.97;99804.09;293353;33;5304;-74
2023/09/13 00:20:09;;;;;;;390.08;323.25;;;;;;;21.27;66.06;99805.91;294792;33;5698;-74
2023/09/13 00:20:19;;;;;;;392.63;325.57;;;;;;;21.25;66.01;99806.88;294850;33;4747;-74
2023/09/13 00:20:30;;;;;;;394.25;327.20;;;;;;;21.25;65.84;99808.69;293364;33;2786;-74
2023/09/13 00:20:41;;;;;;;392.60;328.37;;;;;;;21.25;65.53;99806.03;293021;33;4807;-74
2023/09/13 00:20:54;;;;;;;388.90;322.48;;;;;;;21.24;65.92;99804.34;288960;33;6492;-74
2023/09/13 00:21:04;;;;;;;389.77;322.35;;;;;;;21.23;66.13;99805.31;286143;33;7874;-74
2023/09/13 00:21:17;;;;;;;389.90;325.43;;;;;;;21.22;66.10;99809.84;290681;34;1411;-74
2023/09/13 00:21:28;;;;;;;390.15;332.52;;;;;;;21.21;65.74;99804.63;285002;34;9246;-74
2023/09/13 00:21:40;;;;;;;389.73;330.87;;;;;;;21.21;65.74;99809.97;283462;34;9106;-74
2023/09/13 00:21:50;;;;;;;388.67;322.50;;;;;;;21.19;65.87;99806.53;280722;34;11123;-74
2023/09/13 00:22:01;;;;;;;390.43;326.03;;;;;;;21.20;66.02;99798.44;281633;35;898;-74
2023/09/13 00:22:12;;;;;;;391.13;327.67;;;;;;;21.20;65.91;99806.41;277004;35;7640;-74
2023/09/13 00:22:23;;;;;;;392.67;328.45;;;;;;;21.21;65.99;99805.47;274832;35;8538;-74
2023/09/13 00:22:33;;;;;;;392.15;327.40;;;;;;;21.21;66.29;99804.63;274549;36;895;-74
2023/09/13 00:24:41;;;;;;;377.17;301.06;;;;;;;21.13;66.41;99804.38;2495059;27;20490;-72
2023/09/13 00:24:51;;;;;;;385.77;321.27;;;;;;;21.13;66.12;99805.22;351293;28;1290;-72
2023/09/13 00:25:02;;;;;;;385.33;318.30;;;;;;;21.11;66.10;99803.66;349288;28;1033;-72
2023/09/13 00:25:13;;;;;;;385.00;316.38;;;;;;;21.12;66.14;99800.03;348719;28;1421;-72
2023/09/13 00:25:23;;;;;;;385.27;316.37;;;;;;;21.10;66.29;99808.13;348763;28;878;-72
2023/09/13 00:25:34;;;;;;;388.33;324.83;;;;;;;21.10;66.06;99801.97;348687;28;880;-73
2023/09/13 00:25:44;;;;;;;388.47;325.27;;;;;;;21.12;66.33;99805.34;350140;28;867;-73
2023/09/13 00:25:55;;;;;;;389.63;330.98;;;;;;;21.13;66.17;99801.72;348634;28;1311;-74
2023/09/13 00:26:05;;;;;;;389.97;331.77;;;;;;;21.14;66.70;99803.41;348629;28;852;-74
2023/09/13 00:26:16;;;;;;;390.80;334.38;;;;;;;21.12;66.81;99805.34;347320;28;971;-74
2023/09/13 00:26:26;;;;;;;391.07;332.57;;;;;;;21.10;66.52;99801.97;345730;28;1295;-74
2023/09/13 00:26:37;;;;;;;393.67;335.55;;;;;;;21.10;66.19;99804.63;347876;28;1162;-74
2023/09/13 00:26:47;;;;;;;393.87;333.33;;;;;;;21.10;66.14;99801.97;349870;28;1349;-74
2023/09/13 00:26:58;;;;;;;392.48;330.90;;;;;;;21.10;66.33;99802.81;346979;28;1343;-74
2023/09/13 00:27:08;;;;;;;390.20;328.83;;;;;;;21.10;66.15;99801.97;346193;28;855;-74
2023/09/13 00:27:18;;;;;;;391.50;328.80;;;;;;;21.12;66.07;99805.34;349187;28;1483;-74
2023/09/13 00:27:29;;;;;;;393.45;335.25;;;;;;;21.10;66.37;99799.31;351439;28;876;-74
2023/09/13 00:27:39;;;;;;;393.67;336.23;;;;;;;21.11;66.41;99803.66;350163;28;907;-74
2023/09/13 00:27:49;;;;;;;391.50;332.10;;;;;;;21.10;66.07;99809.94;350188;28;824;-74
2023/09/13 00:28:00;;;;;;;391.50;331.70;;;;;;;21.10;66.25;99801.97;348478;28;1183;-74
2023/09/13 00:28:10;;;;;;;390.77;330.37;;;;;;;21.08;66.31;99804.75;345481;28;1358;-74
2023/09/13 00:28:20;;;;;;;391.75;336.45;;;;;;;21.08;66.26;99806.56;346474;28;1203;-74
2023/09/13 00:28:31;;;;;;;392.23;334.93;;;;;;;21.06;66.26;99806.69;346449;28;1523;-74
2023/09/13 00:28:41;;;;;;;395.77;335.58;;;;;;;21.07;66.09;99807.53;344657;28;865;-74
2023/09/13 00:28:52;;;;;;;394.73;331.90;;;;;;;21.08;66.40;99803.91;346788;28;1211;-74
2023/09/13 00:29:02;;;;;;;393.20;331.73;;;;;;;21.07;66.29;99799.53;344537;28;2739;-73
2023/09/13 00:29:13;;;;;;;390.60;331.35;;;;;;;21.07;66.37;99808.38;342641;28;5034;-73
2023/09/13 00:29:23;;;;;;;391.75;335.52;;;;;;;21.07;66.44;99800.41;346190;28;5145;-73
2023/09/13 00:29:34;;;;;;;392.23;335.00;;;;;;;21.05;66.70;99798.81;346010;28;650;-75
2023/09/13 00:29:44;;;;;;;391.35;331.70;;;;;;;21.04;66.44;99808.63;344482;28;5325;-74
2023/09/13 00:29:56;;;;;;;391.30;330.30;;;;;;;21.03;66.50;99800.75;342016;28;1479;-74
2023/09/13 00:30:08;;;;;;;388.90;329.17;;;;;;;21.03;67.05;99812.25;343129;28;1616;-74
2023/09/13 00:30:19;;;;;;;388.88;323.67;;;;;;;21.04;67.35;99807.78;343091;28;1292;-74
2023/09/13 00:30:29;;;;;;;391.73;326.13;;;;;;;21.03;68.03;99806.09;344724;28;821;-75
2023/09/13 00:30:39;;;;;;;392.80;324.13;;;;;;;21.02;67.51;99805.25;344588;28;1165;-75
2023/09/13 00:30:50;;;;;;;392.58;324.42;;;;;;;21.02;67.43;99809.72;343714;28;1614;-74
2023/09/13 00:31:00;;;;;;;390.73;323.00;;;;;;;21.02;67.34;99799.06;344280;28;1387;-75
2023/09/13 00:31:11;;;;;;;387.23;322.33;;;;;;;21.02;67.51;99805.25;344502;28;1363;-75
2023/09/13 00:31:21;;;;;;;387.60;325.38;;;;;;;21.02;67.60;99797.25;344368;28;1221;-74
2023/09/13 00:31:31;;;;;;;387.43;323.90;;;;;;;21.02;67.33;99804.41;345820;28;944;-74
2023/09/13 00:31:42;;;;;;;389.27;325.20;;;;;;;21.01;67.18;99805.38;344657;28;928;-74
2023/09/13 00:31:52;;;;;;;391.33;324.07;;;;;;;20.99;67.26;99804.63;341876;28;826;-74
2023/09/13 00:32:03;;;;;;;391.27;325.77;;;;;;;21.00;67.44;99806.34;343073;28;926;-74
2023/09/13 00:32:13;;;;;;;392.93;333.30;;;;;;;20.98;67.33;99805.59;343309;28;936;-74
2023/09/13 00:32:24;;;;;;;395.02;335.73;;;;;;;20.99;67.21;99807.31;341545;28;1384;-74
2023/09/13 00:32:34;;;;;;;392.97;332.17;;;;;;;20.98;67.44;99802.94;342195;28;1322;-74
2023/09/13 00:32:44;;;;;;;390.87;324.63;;;;;;;20.99;67.24;99804.63;340636;29;1227;-74
2023/09/13 00:32:55;;;;;;;389.27;324.83;;;;;;;20.98;67.66;99802.94;342948;28;1530;-74
2023/09/13 00:33:05;;;;;;;391.23;327.83;;;;;;;20.98;67.46;99803.78;340815;28;1429;-74
2023/09/13 00:33:16;;;;;;;392.67;330.45;;;;;;;20.99;67.48;99809.97;340553;28;1796;-74
2023/09/13 00:33:26;;;;;;;390.10;326.53;;;;;;;20.99;67.58;99804.63;342204;28;870;-74
2023/09/13 00:33:36;;;;;;;388.90;325.27;;;;;;;20.99;67.28;99805.50;340523;28;1989;-74
2023/09/13 00:33:47;;;;;;;387.10;324.77;;;;;;;20.97;67.61;99802.09;339652;28;1351;-74
2023/09/13 00:33:57;;;;;;;388.80;322.87;;;;;;;20.96;67.61;99805.72;341770;28;948;-74
2023/09/13 00:34:08;;;;;;;388.67;319.02;;;;;;;20.95;67.78;99804.03;341886;28;1259;-74
2023/09/13 00:34:18;;;;;;;388.00;317.83;;;;;;;20.93;67.45;99801.50;342081;28;1380;-74
2023/09/13 00:34:30;;;;;;;387.20;318.67;;;;;;;20.97;67.77;99809.25;340493;29;1184;-74
2023/09/13 00:34:40;;;;;;;385.88;315.35;;;;;;;20.96;67.89;99808.41;336361;29;1455;-74
2023/09/13 00:34:50;;;;;;;386.00;315.85;;;;;;;20.96;67.73;99802.22;337148;29;1882;-74
2023/09/13 00:35:01;;;;;;;385.97;319.70;;;;;;;20.95;68.14;99808.53;335968;29;1851;-74
2023/09/13 00:35:11;;;;;;;386.70;319.67;;;;;;;20.95;67.67;99805.84;334141;29;1196;-74
2023/09/13 00:35:21;;;;;;;388.27;320.30;;;;;;;20.95;68.15;99809.38;334991;29;2206;-74
2023/09/13 00:35:32;;;;;;;390.20;325.40;;;;;;;20.96;67.87;99813.72;336258;29;2122;-74
2023/09/13 00:35:42;;;;;;;390.00;323.80;;;;;;;20.96;68.15;99804.88;334101;29;807;-74
2023/09/13 00:35:56;;;;;;;391.43;324.60;;;;;;;20.94;67.85;99813.00;334004;29;1668;-74
2023/09/13 00:36:06;;;;;;;392.80;323.17;;;;;;;20.93;67.45;99812.16;334783;29;1522;-74
2023/09/13 00:36:17;;;;;;;392.33;324.83;;;;;;;20.94;67.85;99807.69;333527;29;934;-74
2023/09/13 00:36:27;;;;;;;390.45;327.13;;;;;;;20.94;67.49;99807.69;327991;30;816;-74
2023/09/13 00:36:37;;;;;;;389.07;322.53;;;;;;;20.95;67.32;99808.53;330866;29;1423;-74
2023/09/13 00:36:48;;;;;;;389.98;320.85;;;;;;;20.94;67.75;99802.34;330400;29;1867;-74
2023/09/13 00:36:58;;;;;;;387.93;309.00;;;;;;;20.96;67.51;99810.22;329065;30;873;-74
2023/09/13 00:37:08;;;;;;;389.17;315.73;;;;;;;20.96;67.27;99805.72;327329;29;2472;-74
2023/09/13 00:37:19;;;;;;;386.13;313.52;;;;;;;20.98;67.30;99805.59;328754;29;2388;-74
2023/09/13 00:37:29;;;;;;;385.73;315.87;;;;;;;20.99;67.60;99809.97;329044;30;1296;-74
2023/09/13 00:37:40;;;;;;;384.00;309.92;;;;;;;20.98;67.44;99802.94;325766;30;2659;-74
2023/09/13 00:37:50;;;;;;;385.10;308.07;;;;;;;20.97;67.17;99811.91;323942;30;2751;-74
2023/09/13 00:38:01;;;;;;;386.05;310.15;;;;;;;20.96;67.63;99804.88;324187;30;1924;-74
2023/09/13 00:38:11;;;;;;;383.60;309.07;;;;;;;20.96;67.62;99811.06;328017;30;787;-74
2023/09/13 00:38:22;;;;;;;385.90;316.52;;;;;;;20.95;68.16;99803.19;326058;30;1200;-74
2023/09/13 00:38:32;;;;;;;386.03;313.70;;;;;;;20.93;67.89;99801.50;322481;30;4546;-74
2023/09/13 00:38:42;;;;;;;387.60;317.90;;;;;;;20.92;68.22;99806.94;324723;30;2769;-74
2023/09/13 00:38:53;;;;;;;384.20;309.15;;;;;;;20.92;67.66;99805.13;320474;30;3320;-74
2023/09/13 00:39:04;;;;;;;384.77;311.63;;;;;;;20.91;68.03;99803.44;316962;30;2855;-74
2023/09/13 00:39:15;;;;;;;383.75;310.75;;;;;;;20.92;68.07;99809.59;316062;31;1314;-74
2023/09/13 00:39:25;;;;;;;384.23;312.43;;;;;;;20.92;67.91;99805.13;319484;30;3495;-74
2023/09/13 00:39:35;;;;;;;386.42;315.73;;;;;;;20.93;68.12;99811.31;318456;30;3371;-74
2023/09/13 00:39:46;;;;;;;387.43;316.60;;;;;;;20.92;67.63;99804.28;317934;31;3625;-74
2023/09/13 00:39:56;;;;;;;385.63;315.87;;;;;;;20.93;67.87;99806.81;317207;31;777;-74
2023/09/13 00:40:07;;;;;;;382.40;309.33;;;;;;;20.95;67.53;99803.19;316322;31;3693;-75
2023/09/13 00:40:18;;;;;;;384.65;312.50;;;;;;;20.93;67.81;99806.81;315514;31;2563;-75
2023/09/13 00:40:28;;;;;;;385.02;312.92;;;;;;;20.92;67.55;99805.13;312699;31;1319;-74
2023/09/13 00:40:38;;;;;;;387.30;315.30;;;;;;;20.92;67.88;99807.78;313130;31;2337;-74
2023/09/13 00:40:49;;;;;;;386.67;313.77;;;;;;;20.91;68.25;99803.44;312905;31;3075;-74
2023/09/13 00:40:59;;;;;;;387.90;309.88;;;;;;;20.91;68.48;99806.09;311495;31;835;-74
2023/09/13 00:41:10;;;;;;;387.67;311.40;;;;;;;20.91;68.13;99811.41;311481;31;3366;-74
2023/09/13 00:41:20;;;;;;;388.25;312.83;;;;;;;20.91;68.10;99808.75;310845;31;3933;-74
2023/09/13 00:41:32;;;;;;;386.77;314.93;;;;;;;20.91;68.17;99815.91;310984;31;4773;-74
2023/09/13 00:41:42;;;;;;;385.92;313.83;;;;;;;20.90;68.25;99804.41;311830;31;1057;-74
2023/09/13 00:41:52;;;;;;;386.13;314.13;;;;;;;20.90;68.51;99812.41;310093;31;4590;-74
2023/09/13 00:42:03;;;;;;;387.03;313.13;;;;;;;20.90;68.93;99803.56;305954;31;4578;-74
2023/09/13 00:42:13;;;;;;;386.42;311.85;;;;;;;20.89;68.55;99808.03;307105;32;1328;-74
2023/09/13 00:42:24;;;;;;;384.75;309.17;;;;;;;20.89;68.03;99800.06;303661;32;5448;-74
2023/09/13 00:42:35;;;;;;;384.20;310.40;;;;;;;20.91;68.29;99807.91;303137;32;3524;-74
2023/09/13 00:42:46;;;;;;;386.30;313.28;;;;;;;20.92;68.26;99810.47;301285;32;3671;-74
2023/09/13 00:42:56;;;;;;;383.90;310.17;;;;;;;20.92;68.26;99805.13;304012;32;647;-74
2023/09/13 00:43:07;;;;;;;384.20;317.17;;;;;;;20.93;68.71;99805.97;300226;32;4680;-74
2023/09/13 00:43:17;;;;;;;384.45;317.27;;;;;;;20.92;68.98;99809.59;296423;32;5015;-74
2023/09/13 00:43:27;;;;;;;389.03;326.90;;;;;;;20.90;68.40;99807.06;294855;33;1747;-74
2023/09/13 00:43:38;;;;;;;391.10;326.70;;;;;;;20.89;68.26;99807.19;299219;32;5526;-74
2023/09/13 00:43:48;;;;;;;388.80;320.10;;;;;;;20.90;68.10;99803.56;299278;32;6169;-74
2023/09/13 00:43:59;;;;;;;387.50;316.02;;;;;;;20.89;68.21;99810.69;298121;33;881;-74
2023/09/13 00:44:09;;;;;;;386.33;316.83;;;;;;;20.89;68.32;99813.38;298097;32;6288;-74
2023/09/13 00:44:20;;;;;;;387.52;317.65;;;;;;;20.89;68.85;99810.69;297383;33;6292;-74
2023/09/13 00:44:30;;;;;;;384.50;309.07;;;;;;;20.89;68.28;99809.84;296139;33;2632;-74
2023/09/13 00:44:41;;;;;;;386.08;311.88;;;;;;;20.90;68.40;99807.06;294910;33;814;-74
2023/09/13 00:44:51;;;;;;;386.33;313.07;;;;;;;20.89;68.37;99816.03;292197;33;5099;-74
2023/09/13 00:45:01;;;;;;;386.33;315.03;;;;;;;20.88;68.35;99817.00;287928;34;5146;-74
2023/09/13 00:45:12;;;;;;;385.27;309.85;;;;;;;20.88;68.31;99813.47;288200;34;1300;-74
2023/09/13 00:45:22;;;;;;;382.98;306.08;;;;;;;20.84;68.29;99810.22;285798;34;6816;-74
2023/09/13 00:45:33;;;;;;;382.50;308.03;;;;;;;20.83;68.49;99805.88;285587;34;7144;-74
2023/09/13 00:45:43;;;;;;;380.25;302.10;;;;;;;20.84;68.63;99812.88;287240;34;841;-74
2023/09/13 00:45:54;;;;;;;382.33;303.53;;;;;;;20.81;68.88;99815.78;281379;34;7578;-74
2023/09/13 00:46:04;;;;;;;384.00;308.77;;;;;;;20.84;68.81;99812.03;282727;34;8863;-74
2023/09/13 00:46:15;;;;;;;387.40;316.37;;;;;;;20.83;68.91;99813.84;283468;34;814;-74
2023/09/13 00:46:25;;;;;;;388.33;322.30;;;;;;;20.83;69.61;99811.19;282230;34;9317;-73
2023/09/13 00:46:36;;;;;;;388.08;318.98;;;;;;;20.81;69.03;99810.47;280716;34;9043;-74
2023/09/13 00:48:53;;;;;;;372.43;284.57;;;;;;;20.83;68.88;99813.84;2495916;27;20269;-73
2023/09/13 00:49:03;;;;;;;384.47;310.70;;;;;;;20.82;69.00;99820.13;354284;27;906;-73
2023/09/13 00:49:14;;;;;;;383.60;306.80;;;;;;;20.83;68.99;99813.84;352934;28;1092;-73
2023/09/13 00:49:24;;;;;;;381.87;305.87;;;;;;;20.83;68.97;99815.66;349984;28;1749;-73
2023/09/13 00:49:35;;;;;;;380.20;301.65;;;;;;;20.82;69.32;99820.13;350761;28;1314;-73
2023/09/13 00:49:47;;;;;;;381.73;304.87;;;;;;;20.80;69.15;99814.09;350038;28;2617;-73
2023/09/13 00:49:57;;;;;;;382.23;303.88;;;;;;;20.77;69.76;99810.88;348569;28;1117;-73
2023/09/13 00:50:09;;;;;;;384.00;303.73;;;;;;;20.76;69.67;99810.00;348691;28;825;-73
2023/09/13 00:50:20;;;;;;;385.38;310.08;;;;;;;20.77;69.96;99811.72;348515;28;1826;-73
2023/09/13 00:50:31;;;;;;;389.55;322.42;;;;;;;20.77;69.87;99816.19;348851;28;1413;-73
2023/09/13 00:50:41;;;;;;;390.83;323.63;;;;;;;20.75;70.15;99812.78;352925;28;851;-73
2023/09/13 00:50:52;;;;;;;389.63;317.33;;;;;;;20.76;70.19;99814.50;350141;28;875;-73
2023/09/13 00:51:02;;;;;;;385.27;308.90;;;;;;;20.75;69.72;99818.97;349168;28;1684;-73
2023/09/13 00:51:13;;;;;;;380.07;302.93;;;;;;;20.76;69.91;99814.50;348509;28;1555;-73
2023/09/13 00:51:23;;;;;;;379.13;302.03;;;;;;;20.75;70.01;99813.66;350175;28;812;-75
2023/09/13 00:51:34;;;;;;;380.15;306.63;;;;;;;20.75;69.68;99813.66;350273;28;974;-75
2023/09/13 00:51:44;;;;;;;382.00;311.43;;;;;;;20.75;69.91;99818.13;347318;28;904;-74
2023/09/13 00:51:55;;;;;;;384.27;313.55;;;;;;;20.73;69.71;99810.25;346240;28;1087;-74
2023/09/13 00:52:05;;;;;;;384.80;313.67;;;;;;;20.73;69.90;99818.25;345889;28;907;-74
2023/09/13 00:52:16;;;;;;;386.17;316.83;;;;;;;20.74;69.71;99814.63;345586;28;1337;-74
2023/09/13 00:52:26;;;;;;;387.08;320.27;;;;;;;20.71;69.87;99812.19;347238;28;883;-74
2023/09/13 00:52:37;;;;;;;385.67;318.37;;;;;;;20.73;70.02;99815.56;346604;28;1200;-74
2023/09/13 00:52:47;;;;;;;385.17;317.05;;;;;;;20.73;70.35;99820.91;344053;28;1256;-74
2023/09/13 00:52:58;;;;;;;385.57;315.47;;;;;;;20.71;69.68;99814.84;341916;28;823;-74
2023/09/13 00:53:09;;;;;;;387.48;316.95;;;;;;;20.71;69.95;99814.00;343252;28;1324;-74
2023/09/13 00:53:19;;;;;;;388.70;314.58;;;;;;;20.72;70.05;99815.69;342203;28;1652;-74